Time;durP1;ratioP1;P1;durP2;ratioP2;P2;SDS_P1;SDS_P2;PMS_P1;PMS_P2;Temp;Humidity;BMP_temperature;BMP_pressure;BME280_temperature;BME280_humidity;BME280_pressure;Samples;Min_cycle;Max_cycle;Signal;HPM_P1;HPM_P2
2023/10/30 00:01:01;;;;;;;5.30;1.40;;;11.20;99.90;;;;;;5009632;28;20026;-74
2023/10/30 00:03:29;;;;;;;5.68;1.40;;;11.20;99.90;;;;;;5007351;28;20041;-74
2023/10/30 00:05:55;;;;;;;7.00;1.55;;;11.20;99.90;;;;;;5007928;28;20013;-74
2023/10/30 00:08:21;;;;;;;7.57;1.50;;;11.20;99.90;;;;;;5007747;28;20100;-74
2023/10/30 00:10:47;;;;;;;8.02;1.50;;;11.20;99.90;;;;;;4999779;28;20037;-74
2023/10/30 00:13:12;;;;;;;5.97;1.58;;;11.20;99.90;;;;;;5008793;28;20030;-73
2023/10/30 00:15:38;;;;;;;6.60;1.60;;;11.20;99.90;;;;;;5009839;28;20033;-74
2023/10/30 00:18:04;;;;;;;4.90;1.48;;;11.20;99.90;;;;;;4998385;28;20042;-73
2023/10/30 00:20:29;;;;;;;4.80;1.38;;;11.20;99.90;;;;;;5007786;28;20033;-74
2023/10/30 00:22:55;;;;;;;8.25;1.67;;;11.20;99.90;;;;;;5009742;28;20091;-73
2023/10/30 00:25:21;;;;;;;6.25;1.50;;;11.20;99.90;;;;;;5004132;28;20041;-74
2023/10/30 00:27:47;;;;;;;5.95;1.70;;;11.10;99.90;;;;;;5003885;28;20015;-73
2023/10/30 00:30:13;;;;;;;4.63;1.00;;;11.10;99.90;;;;;;5008081;28;20417;-73
2023/10/30 00:32:39;;;;;;;4.55;1.50;;;11.10;99.90;;;;;;5003770;28;20022;-73
2023/10/30 00:35:05;;;;;;;5.05;1.80;;;11.10;99.90;;;;;;5004060;28;20109;-74
2023/10/30 00:37:31;;;;;;;5.90;1.73;;;11.10;99.90;;;;;;5006626;28;20025;-74
2023/10/30 00:39:56;;;;;;;7.43;1.50;;;11.10;99.90;;;;;;4992333;28;20030;-73
2023/10/30 00:42:27;;;;;;;5.40;1.67;;;11.10;99.90;;;;;;5004095;28;20058;-74
2023/10/30 00:44:53;;;;;;;8.70;1.73;;;11.10;99.90;;;;;;5002768;28;20029;-73
2023/10/30 00:47:18;;;;;;;10.13;1.80;;;11.00;99.90;;;;;;4999987;28;20014;-73
2023/10/30 00:49:44;;;;;;;7.35;1.77;;;11.00;99.90;;;;;;5008490;28;20026;-73
2023/10/30 00:52:09;;;;;;;8.55;1.85;;;11.00;99.90;;;;;;5009205;28;20426;-74
2023/10/30 00:54:36;;;;;;;11.95;2.55;;;11.00;99.90;;;;;;5010216;28;20073;-74
2023/10/30 00:57:01;;;;;;;7.88;2.25;;;11.00;99.90;;;;;;4994869;28;20493;-74
2023/10/30 00:59:27;;;;;;;8.95;2.28;;;10.90;99.90;;;;;;5009848;28;20449;-73
2023/10/30 01:01:52;;;;;;;12.77;2.38;;;10.90;99.90;;;;;;5005595;28;20030;-73
2023/10/30 01:04:18;;;;;;;13.65;2.40;;;10.90;99.90;;;;;;5009002;28;20386;-74
2023/10/30 01:06:44;;;;;;;14.15;2.70;;;10.90;99.90;;;;;;5009598;28;20049;-73
2023/10/30 01:09:09;;;;;;;9.80;2.60;;;10.90;99.90;;;;;;5009217;28;20030;-74
2023/10/30 01:11:35;;;;;;;10.20;2.17;;;10.90;99.90;;;;;;5006408;28;20029;-73
2023/10/30 01:14:00;;;;;;;12.57;2.33;;;10.90;99.90;;;;;;5000110;28;20022;-73
2023/10/30 01:16:26;;;;;;;12.30;2.22;;;10.80;99.90;;;;;;5009836;28;20101;-73
2023/10/30 01:18:51;;;;;;;14.75;2.70;;;10.80;99.90;;;;;;5004062;28;20026;-74
2023/10/30 01:21:20;;;;;;;14.32;2.63;;;10.80;99.90;;;;;;5009531;28;20033;-74
2023/10/30 01:23:45;;;;;;;9.60;2.20;;;10.80;99.90;;;;;;5004923;28;20018;-74
2023/10/30 01:26:11;;;;;;;8.18;2.03;;;10.80;99.90;;;;;;5007920;28;20450;-73
2023/10/30 01:28:36;;;;;;;11.05;2.60;;;10.80;99.90;;;;;;5004699;28;20022;-74
2023/10/30 01:31:04;;;;;;;10.35;2.35;;;10.80;99.90;;;;;;5002206;28;20030;-73
2023/10/30 01:33:30;;;;;;;11.07;2.25;;;10.90;99.90;;;;;;4999230;28;20014;-73
2023/10/30 01:35:56;;;;;;;17.05;2.80;;;10.90;99.90;;;;;;5008767;28;20101;-73
2023/10/30 01:38:21;;;;;;;13.82;2.40;;;10.90;99.90;;;;;;5011470;28;20455;-73
2023/10/30 01:40:51;;;;;;;14.23;2.40;;;10.90;99.90;;;;;;5011021;28;20026;-74
2023/10/30 01:43:27;;;;;;;8.70;1.92;;;10.90;99.90;;;;;;5005040;28;20092;-74
2023/10/30 01:45:52;;;;;;;12.40;2.67;;;10.90;99.90;;;;;;5002107;28;20031;-74
2023/10/30 01:48:18;;;;;;;10.52;2.22;;;10.90;99.90;;;;;;5013028;28;20029;-73
2023/10/30 01:50:44;;;;;;;8.38;2.10;;;10.90;99.90;;;;;;5012048;28;20030;-74
2023/10/30 01:53:10;;;;;;;8.75;2.20;;;10.90;99.90;;;;;;5009407;28;20081;-73
2023/10/30 01:55:37;;;;;;;13.10;2.08;;;10.80;99.90;;;;;;5012785;28;20034;-73
2023/10/30 01:58:03;;;;;;;12.57;2.15;;;10.80;99.90;;;;;;5009841;28;20018;-73
2023/10/30 02:00:29;;;;;;;11.57;1.95;;;10.80;99.90;;;;;;5010780;28;20025;-74
2023/10/30 02:02:58;;;;;;;12.38;2.00;;;10.80;99.90;;;;;;5011056;28;20073;-73
2023/10/30 02:05:24;;;;;;;9.63;2.00;;;10.80;99.90;;;;;;5012758;28;20131;-73
2023/10/30 02:07:49;;;;;;;12.55;2.08;;;10.70;99.90;;;;;;5006291;28;20049;-74
2023/10/30 02:10:15;;;;;;;11.30;2.00;;;10.70;99.90;;;;;;5007086;28;20025;-73
2023/10/30 02:12:48;;;;;;;11.90;1.80;;;10.70;99.90;;;;;;5012033;28;20018;-73
2023/10/30 02:15:14;;;;;;;14.25;2.03;;;10.70;99.90;;;;;;5009591;28;20025;-74
2023/10/30 02:17:39;;;;;;;11.52;1.98;;;10.60;99.90;;;;;;4996975;28;20022;-73
2023/10/30 02:20:05;;;;;;;16.73;2.08;;;10.60;99.90;;;;;;5009645;28;20033;-73
2023/10/30 02:22:31;;;;;;;10.65;2.15;;;10.60;99.90;;;;;;5005543;28;20486;-73
2023/10/30 02:24:57;;;;;;;9.73;2.28;;;10.60;99.90;;;;;;5010314;28;20026;-74
2023/10/30 02:27:23;;;;;;;10.13;2.05;;;10.60;99.90;;;;;;5011847;28;20021;-73
2023/10/30 02:29:48;;;;;;;10.85;2.40;;;10.50;99.90;;;;;;4997492;28;20018;-74
2023/10/30 02:32:14;;;;;;;13.50;2.20;;;10.50;99.90;;;;;;5007392;28;20475;-74
2023/10/30 02:34:39;;;;;;;13.80;2.28;;;10.50;99.90;;;;;;5011705;28;20439;-73
2023/10/30 02:37:05;;;;;;;16.73;2.22;;;10.50;99.90;;;;;;5005756;28;20045;-73
2023/10/30 02:39:33;;;;;;;15.40;2.55;;;10.50;99.90;;;;;;5005909;28;20053;-73
2023/10/30 02:41:59;;;;;;;15.77;2.60;;;10.40;99.90;;;;;;4993966;28;20023;-73
2023/10/30 02:44:25;;;;;;;14.43;2.40;;;10.50;99.90;;;;;;5008140;28;20045;-73
2023/10/30 02:46:51;;;;;;;14.93;2.35;;;10.40;99.90;;;;;;5010076;28;20140;-73
2023/10/30 02:49:16;;;;;;;11.23;2.53;;;10.40;99.90;;;;;;5010554;28;20029;-74
2023/10/30 02:51:42;;;;;;;15.00;2.33;;;10.40;99.90;;;;;;5011972;28;20121;-73
2023/10/30 02:54:08;;;;;;;11.10;2.17;;;10.40;99.90;;;;;;5002700;28;20037;-73
2023/10/30 02:56:33;;;;;;;11.57;2.20;;;10.40;99.90;;;;;;5011213;28;20463;-73
2023/10/30 02:58:59;;;;;;;10.73;2.22;;;10.40;99.90;;;;;;5000155;28;20022;-74
2023/10/30 03:01:26;;;;;;;12.88;2.03;;;10.40;99.90;;;;;;4999893;28;20022;-73
2023/10/30 03:03:51;;;;;;;10.75;2.20;;;10.40;99.90;;;;;;4997151;28;20057;-74
2023/10/30 03:06:17;;;;;;;21.20;2.55;;;10.40;99.90;;;;;;5011664;28;20049;-74
2023/10/30 03:08:43;;;;;;;14.95;2.20;;;10.40;99.90;;;;;;4993609;28;20026;-73
2023/10/30 03:11:08;;;;;;;16.33;2.40;;;10.40;99.90;;;;;;4993665;28;20034;-73
2023/10/30 03:13:34;;;;;;;11.75;2.45;;;10.40;99.90;;;;;;5006483;28;20029;-73
2023/10/30 03:16:00;;;;;;;17.08;2.88;;;10.40;99.90;;;;;;5011225;28;20113;-73
2023/10/30 03:18:25;;;;;;;18.88;2.78;;;10.40;99.90;;;;;;5010671;28;20387;-73
2023/10/30 03:20:51;;;;;;;14.73;2.30;;;10.40;99.90;;;;;;4998298;28;20026;-73
2023/10/30 03:23:16;;;;;;;16.40;2.25;;;10.40;99.90;;;;;;5010676;28;20072;-73
2023/10/30 03:25:42;;;;;;;18.45;2.63;;;10.40;99.90;;;;;;4999313;28;20383;-73
2023/10/30 03:28:08;;;;;;;18.00;2.67;;;10.40;99.90;;;;;;5002562;28;20090;-73
2023/10/30 03:30:35;;;;;;;11.23;2.50;;;10.40;99.90;;;;;;4998550;28;20080;-73
2023/10/30 03:33:02;;;;;;;14.32;2.25;;;10.40;99.90;;;;;;5010927;28;20485;-73
2023/10/30 03:35:28;;;;;;;12.52;2.63;;;10.40;99.90;;;;;;5005491;28;20122;-73
2023/10/30 03:37:53;;;;;;;10.25;2.70;;;10.40;99.90;;;;;;5003710;28;20522;-73
2023/10/30 03:40:19;;;;;;;14.82;3.00;;;10.40;99.90;;;;;;5009841;28;20110;-73
2023/10/30 03:42:44;;;;;;;15.10;2.47;;;10.40;99.90;;;;;;5008929;28;20018;-73
2023/10/30 03:45:10;;;;;;;12.98;2.20;;;10.40;99.90;;;;;;5009088;28;20037;-73
2023/10/30 03:47:36;;;;;;;19.23;3.20;;;10.40;99.90;;;;;;5010273;28;20052;-73
2023/10/30 03:50:01;;;;;;;14.45;2.92;;;10.50;99.90;;;;;;5010552;28;20407;-73
2023/10/30 03:52:27;;;;;;;14.38;2.53;;;10.40;99.90;;;;;;5007842;28;20050;-73
2023/10/30 03:54:53;;;;;;;13.77;2.22;;;10.40;99.90;;;;;;5008047;28;20025;-73
2023/10/30 03:57:18;;;;;;;19.15;2.80;;;10.40;99.90;;;;;;5003901;28;20025;-73
2023/10/30 03:59:44;;;;;;;17.20;2.30;;;10.40;99.90;;;;;;5003813;28;20018;-73
2023/10/30 04:02:09;;;;;;;15.07;3.08;;;10.40;99.90;;;;;;5009671;28;20044;-74
2023/10/30 04:04:36;;;;;;;14.82;2.42;;;10.40;99.90;;;;;;5005025;28;20031;-73
2023/10/30 04:07:02;;;;;;;20.08;2.92;;;10.40;99.90;;;;;;5008663;28;20025;-73
2023/10/30 04:09:29;;;;;;;8.18;2.05;;;10.40;99.90;;;;;;5009343;28;20475;-74
2023/10/30 04:11:54;;;;;;;16.13;2.58;;;10.40;99.90;;;;;;5005636;28;20039;-73
2023/10/30 04:14:20;;;;;;;13.52;2.28;;;10.40;99.90;;;;;;4996583;28;20033;-73
2023/10/30 04:16:45;;;;;;;12.73;2.40;;;10.40;99.90;;;;;;5007409;28;20474;-73
2023/10/30 04:19:11;;;;;;;17.92;2.28;;;10.40;99.90;;;;;;5009984;28;20111;-73
2023/10/30 04:21:36;;;;;;;13.70;2.30;;;10.40;99.90;;;;;;5008151;28;20041;-73
2023/10/30 04:24:02;;;;;;;14.27;2.33;;;10.40;99.90;;;;;;5009779;28;20058;-73
2023/10/30 04:26:28;;;;;;;18.27;2.50;;;10.40;99.90;;;;;;5006925;28;20026;-73
2023/10/30 04:28:53;;;;;;;20.00;2.45;;;10.40;99.90;;;;;;5004032;28;20057;-73
2023/10/30 04:31:19;;;;;;;15.48;2.35;;;10.40;99.90;;;;;;5000626;28;20026;-73
2023/10/30 04:33:45;;;;;;;16.52;2.53;;;10.40;99.90;;;;;;5005538;28;20026;-73
2023/10/30 04:36:10;;;;;;;16.45;2.42;;;10.40;99.90;;;;;;4993869;28;20041;-73
2023/10/30 04:38:36;;;;;;;19.83;2.60;;;10.40;99.90;;;;;;5002859;28;20060;-73
2023/10/30 04:41:06;;;;;;;13.40;2.28;;;10.40;99.90;;;;;;5005035;28;20035;-73
2023/10/30 04:43:33;;;;;;;15.10;2.42;;;10.40;99.90;;;;;;5003107;28;20133;-74
2023/10/30 04:45:58;;;;;;;13.90;2.50;;;10.40;99.90;;;;;;5005942;28;20101;-74
2023/10/30 04:48:24;;;;;;;18.08;2.70;;;10.40;99.90;;;;;;5003234;28;20108;-74
2023/10/30 04:50:49;;;;;;;17.95;2.45;;;10.40;99.90;;;;;;5001879;28;20033;-74
2023/10/30 04:53:15;;;;;;;10.43;2.22;;;10.40;99.90;;;;;;5012196;28;20108;-74
2023/10/30 04:55:41;;;;;;;16.70;2.65;;;10.40;99.90;;;;;;5012018;28;20033;-74
2023/10/30 04:58:06;;;;;;;18.02;2.95;;;10.40;99.90;;;;;;5007667;28;20499;-74
2023/10/30 05:00:32;;;;;;;12.68;2.60;;;10.40;99.90;;;;;;5004353;28;20246;-74
2023/10/30 05:02:57;;;;;;;15.30;2.70;;;10.40;99.90;;;;;;5003752;28;20050;-74
2023/10/30 05:05:23;;;;;;;17.33;2.65;;;10.40;99.90;;;;;;5011675;28;20093;-74
2023/10/30 05:07:49;;;;;;;11.77;2.40;;;10.50;99.90;;;;;;5012920;28;20072;-74
2023/10/30 05:10:15;;;;;;;17.95;2.47;;;10.50;99.90;;;;;;5013780;28;20026;-74
2023/10/30 05:12:40;;;;;;;16.58;2.70;;;10.50;99.90;;;;;;5017324;28;20033;-74
2023/10/30 05:15:08;;;;;;;19.50;3.15;;;10.50;99.90;;;;;;5015767;28;20108;-74
2023/10/30 05:17:37;;;;;;;14.85;2.90;;;10.50;99.90;;;;;;5013695;28;20493;-74
2023/10/30 05:20:03;;;;;;;15.93;2.60;;;10.50;99.90;;;;;;5012256;28;20207;-74
2023/10/30 05:22:28;;;;;;;17.92;2.63;;;10.50;99.90;;;;;;5013126;28;20045;-74
2023/10/30 05:24:54;;;;;;;17.92;2.75;;;10.50;99.90;;;;;;5013015;28;20018;-74
2023/10/30 05:27:19;;;;;;;13.55;2.72;;;10.50;99.90;;;;;;5012329;28;20049;-74
2023/10/30 05:29:45;;;;;;;15.90;3.15;;;10.50;99.90;;;;;;5012574;28;20557;-74
2023/10/30 05:32:10;;;;;;;20.13;2.78;;;10.50;99.90;;;;;;5005658;28;20092;-74
2023/10/30 05:34:36;;;;;;;18.00;3.00;;;10.50;99.90;;;;;;5006261;28;20065;-74
2023/10/30 05:37:06;;;;;;;14.10;2.90;;;10.50;99.90;;;;;;5003387;28;20261;-74
2023/10/30 05:39:32;;;;;;;14.52;2.78;;;10.50;99.90;;;;;;5011907;28;20026;-75
2023/10/30 05:41:58;;;;;;;21.77;3.00;;;10.50;99.90;;;;;;5012782;28;20387;-74
2023/10/30 05:44:24;;;;;;;12.43;2.63;;;10.50;99.90;;;;;;5012766;28;20096;-74
2023/10/30 05:46:50;;;;;;;22.65;3.28;;;10.50;99.90;;;;;;5006505;28;20105;-74
2023/10/30 05:49:15;;;;;;;16.75;2.72;;;10.50;99.90;;;;;;5008108;28;20038;-74
2023/10/30 05:51:41;;;;;;;18.08;3.35;;;10.50;99.90;;;;;;5011115;28;20518;-74
2023/10/30 05:54:06;;;;;;;18.67;3.13;;;10.50;99.90;;;;;;5012597;28;20033;-74
2023/10/30 05:56:32;;;;;;;17.80;2.80;;;10.50;99.90;;;;;;5013202;28;20014;-74
2023/10/30 05:58:57;;;;;;;17.13;2.97;;;10.50;99.90;;;;;;4999592;28;20026;-74
2023/10/30 06:01:23;;;;;;;16.50;2.90;;;10.50;99.90;;;;;;5011462;28;20014;-74
2023/10/30 06:03:48;;;;;;;13.82;2.72;;;10.50;99.90;;;;;;5010988;28;20596;-74
2023/10/30 06:06:14;;;;;;;18.08;2.92;;;10.50;99.90;;;;;;5011876;28;20500;-74
2023/10/30 06:08:40;;;;;;;21.67;3.58;;;10.50;99.90;;;;;;5012216;28;20092;-74
2023/10/30 06:11:05;;;;;;;20.05;3.35;;;10.50;99.90;;;;;;5007546;28;20060;-74
2023/10/30 06:13:31;;;;;;;17.70;2.97;;;10.50;99.90;;;;;;5011834;28;20058;-73
2023/10/30 06:15:56;;;;;;;17.60;3.30;;;10.50;99.90;;;;;;5012325;28;20395;-73
2023/10/30 06:18:23;;;;;;;19.45;2.97;;;10.50;99.90;;;;;;5008644;28;20061;-74
2023/10/30 06:20:48;;;;;;;16.63;3.05;;;10.50;99.90;;;;;;5004774;28;20029;-74
2023/10/30 06:23:15;;;;;;;14.60;2.70;;;10.50;99.90;;;;;;5009741;28;20020;-74
2023/10/30 06:25:41;;;;;;;22.88;3.47;;;10.50;99.90;;;;;;5011377;28;20018;-74
2023/10/30 06:28:10;;;;;;;20.27;3.10;;;10.40;99.90;;;;;;5008643;28;20094;-74
2023/10/30 06:30:35;;;;;;;20.45;3.30;;;10.40;99.90;;;;;;5002177;28;20096;-74
2023/10/30 06:33:01;;;;;;;15.13;3.33;;;10.50;99.90;;;;;;5008902;28;20542;-74
2023/10/30 06:35:27;;;;;;;17.75;3.33;;;10.50;99.90;;;;;;5001170;28;20014;-73
2023/10/30 06:37:52;;;;;;;19.15;3.20;;;10.40;99.90;;;;;;5006138;28;20022;-73
2023/10/30 06:40:18;;;;;;;16.42;3.60;;;10.40;99.90;;;;;;5009372;28;20026;-75
2023/10/30 06:42:44;;;;;;;16.98;3.30;;;10.50;99.90;;;;;;5012132;28;20526;-74
2023/10/30 06:45:10;;;;;;;18.67;3.20;;;10.50;99.90;;;;;;5009917;28;20018;-74
2023/10/30 06:47:35;;;;;;;15.15;3.03;;;10.40;99.90;;;;;;5012538;28;20037;-74
2023/10/30 06:50:02;;;;;;;16.05;3.30;;;10.50;99.90;;;;;;5008953;28;20354;-72
2023/10/30 06:52:28;;;;;;;15.43;3.00;;;10.50;99.90;;;;;;5008831;28;20666;-72
2023/10/30 06:54:53;;;;;;;18.33;3.28;;;10.50;99.90;;;;;;5011519;28;20030;-72
2023/10/30 06:57:19;;;;;;;18.13;3.53;;;10.50;99.90;;;;;;5009591;28;20022;-74
2023/10/30 06:59:45;;;;;;;18.73;3.35;;;10.50;99.90;;;;;;5009209;28;20239;-73
2023/10/30 07:02:10;;;;;;;17.63;3.90;;;10.50;99.90;;;;;;5009505;28;20097;-73
2023/10/30 07:04:37;;;;;;;17.58;3.38;;;10.50;99.90;;;;;;5006901;28;20022;-72
2023/10/30 07:07:03;;;;;;;15.27;3.42;;;10.50;99.90;;;;;;5004701;28;20014;-73
2023/10/30 07:09:29;;;;;;;18.55;3.47;;;10.50;99.90;;;;;;5010392;28;20088;-73
2023/10/30 07:11:54;;;;;;;21.17;3.40;;;10.50;99.90;;;;;;5010342;28;20053;-73
2023/10/30 07:14:20;;;;;;;16.48;3.28;;;10.50;99.90;;;;;;5008501;28;20103;-72
2023/10/30 07:16:45;;;;;;;16.45;3.20;;;10.60;99.90;;;;;;5003470;28;20488;-73
2023/10/30 07:19:11;;;;;;;18.27;3.05;;;10.60;99.90;;;;;;5008109;28;20029;-73
2023/10/30 07:21:36;;;;;;;18.73;3.65;;;10.70;99.90;;;;;;5005381;28;20034;-73
2023/10/30 07:24:02;;;;;;;20.65;3.75;;;10.70;99.90;;;;;;5006970;28;20038;-73
2023/10/30 07:26:27;;;;;;;18.33;3.50;;;10.80;99.90;;;;;;5007065;28;20087;-73
2023/10/30 07:28:54;;;;;;;21.40;3.50;;;10.80;99.90;;;;;;5010823;28;20475;-74
2023/10/30 07:31:20;;;;;;;19.20;3.20;;;10.80;99.90;;;;;;5009249;28;20109;-73
2023/10/30 07:33:46;;;;;;;20.13;3.78;;;10.90;99.90;;;;;;5005827;28;20117;-73
2023/10/30 07:36:11;;;;;;;18.40;3.55;;;10.90;99.90;;;;;;5005758;28;20034;-73
2023/10/30 07:38:37;;;;;;;23.02;4.00;;;10.90;99.90;;;;;;5001164;28;20085;-73
2023/10/30 07:41:04;;;;;;;16.27;3.17;;;11.00;99.90;;;;;;5004756;28;20068;-73
2023/10/30 07:43:29;;;;;;;21.80;3.83;;;11.00;99.90;;;;;;5009432;28;20025;-73
2023/10/30 07:45:56;;;;;;;21.65;3.30;;;11.00;99.90;;;;;;5002384;28;20034;-74
2023/10/30 07:48:22;;;;;;;21.38;3.38;;;11.00;99.90;;;;;;5007823;28;20022;-73
2023/10/30 07:50:47;;;;;;;22.15;3.58;;;11.00;99.90;;;;;;5004062;28;20095;-73
2023/10/30 07:53:16;;;;;;;25.38;4.07;;;11.10;99.90;;;;;;5006659;28;20149;-73
2023/10/30 07:55:41;;;;;;;21.40;3.10;;;11.10;99.90;;;;;;5009360;28;20022;-73
2023/10/30 07:58:07;;;;;;;16.77;3.10;;;11.10;99.90;;;;;;5008564;28;20025;-73
2023/10/30 08:00:33;;;;;;;22.98;3.50;;;11.20;99.90;;;;;;5007793;28;20014;-73
2023/10/30 08:03:03;;;;;;;18.48;3.00;;;11.20;99.90;;;;;;5005759;28;20475;-73
2023/10/30 08:05:30;;;;;;;16.73;2.88;;;11.20;99.90;;;;;;5005147;28;20022;-73
2023/10/30 08:07:56;;;;;;;23.55;3.50;;;11.30;99.90;;;;;;4998980;28;20018;-73
2023/10/30 08:10:22;;;;;;;18.20;3.15;;;11.30;99.90;;;;;;5011818;28;20032;-73
2023/10/30 08:12:47;;;;;;;19.95;3.72;;;11.40;99.90;;;;;;5009501;28;20018;-73
2023/10/30 08:15:13;;;;;;;19.13;3.63;;;11.40;99.90;;;;;;5009125;28;20503;-73
2023/10/30 08:17:38;;;;;;;19.65;3.10;;;11.50;99.90;;;;;;5010360;28;20088;-73
2023/10/30 08:20:04;;;;;;;25.88;3.55;;;11.50;99.90;;;;;;4994336;28;20032;-73
2023/10/30 08:22:32;;;;;;;17.05;3.03;;;11.60;99.90;;;;;;5010083;28;20022;-73
2023/10/30 08:24:58;;;;;;;20.92;3.38;;;11.60;99.90;;;;;;5009672;28;20594;-73
2023/10/30 08:27:24;;;;;;;17.73;3.13;;;11.70;99.90;;;;;;5010168;28;20017;-73
2023/10/30 08:29:50;;;;;;;19.30;3.40;;;11.70;99.90;;;;;;5007560;28;20033;-73
2023/10/30 08:32:15;;;;;;;20.55;3.33;;;11.70;99.90;;;;;;5001287;28;20302;-73
2023/10/30 08:34:41;;;;;;;20.45;3.28;;;11.70;99.90;;;;;;5004787;28;20032;-73
2023/10/30 08:37:06;;;;;;;17.08;3.30;;;11.80;99.90;;;;;;4998196;28;20386;-73
2023/10/30 08:39:32;;;;;;;18.52;3.15;;;11.80;99.90;;;;;;5007824;28;20391;-73
2023/10/30 08:41:58;;;;;;;19.17;3.08;;;11.80;99.90;;;;;;5006396;28;20105;-74
2023/10/30 08:44:24;;;;;;;21.60;3.20;;;11.80;99.90;;;;;;5000000;28;20030;-73
2023/10/30 08:46:50;;;;;;;16.88;3.20;;;11.80;99.90;;;;;;5006086;28;20176;-73
2023/10/30 08:49:16;;;;;;;18.10;3.42;;;11.80;99.90;;;;;;5000289;28;20029;-73
2023/10/30 08:51:42;;;;;;;19.17;2.90;;;11.80;99.90;;;;;;5008601;28;20049;-74
2023/10/30 08:54:08;;;;;;;23.00;3.72;;;11.90;99.90;;;;;;5005966;28;20045;-73
2023/10/30 08:56:33;;;;;;;14.85;3.00;;;11.90;99.90;;;;;;4997564;28;20018;-73
2023/10/30 08:58:59;;;;;;;15.77;3.30;;;11.90;99.90;;;;;;5007302;28;20382;-73
2023/10/30 09:01:26;;;;;;;16.25;2.67;;;11.90;99.90;;;;;;5009615;28;20409;-73
2023/10/30 09:03:52;;;;;;;19.48;3.08;;;11.90;99.90;;;;;;5009266;28;20419;-74
2023/10/30 09:06:18;;;;;;;20.35;3.30;;;11.90;99.90;;;;;;5007937;28;20107;-73
2023/10/30 09:08:44;;;;;;;22.15;3.33;;;12.00;99.90;;;;;;5005043;28;20078;-73
2023/10/30 09:11:09;;;;;;;18.52;2.75;;;12.00;99.90;;;;;;5000693;28;20035;-73
2023/10/30 09:13:35;;;;;;;14.27;3.05;;;12.00;99.90;;;;;;5008677;28;20026;-74
2023/10/30 09:16:00;;;;;;;15.20;2.60;;;12.00;99.90;;;;;;5006189;28;20026;-74
2023/10/30 09:18:26;;;;;;;19.60;2.97;;;12.10;99.90;;;;;;5005741;28;20381;-74
2023/10/30 09:20:51;;;;;;;17.88;2.67;;;12.10;99.90;;;;;;5009150;28;20529;-73
2023/10/30 09:23:17;;;;;;;17.90;2.78;;;12.10;99.90;;;;;;5008744;28;20471;-73
2023/10/30 09:25:43;;;;;;;16.10;2.33;;;12.20;99.90;;;;;;5009540;28;20030;-73
2023/10/30 09:28:08;;;;;;;16.85;2.85;;;12.20;99.90;;;;;;4997290;28;20061;-73
2023/10/30 09:30:34;;;;;;;16.20;2.85;;;12.30;99.90;;;;;;5000955;28;20018;-73
2023/10/30 09:33:00;;;;;;;11.60;2.97;;;12.30;99.90;;;;;;5005626;28;20551;-73
2023/10/30 09:35:29;;;;;;;15.35;2.55;;;12.40;99.90;;;;;;4993716;28;20360;-73
2023/10/30 09:37:56;;;;;;;20.27;3.08;;;12.40;99.90;;;;;;5006596;28;20026;-73
2023/10/30 09:40:25;;;;;;;23.02;3.58;;;12.50;99.90;;;;;;5003773;28;20061;-73
2023/10/30 09:42:52;;;;;;;16.95;3.22;;;12.50;99.90;;;;;;5003281;28;20022;-73
2023/10/30 09:45:20;;;;;;;14.55;3.00;;;12.50;99.90;;;;;;5003920;28;20029;-74
2023/10/30 09:47:47;;;;;;;15.30;3.08;;;12.50;99.90;;;;;;4999467;28;20022;-73
2023/10/30 09:50:13;;;;;;;23.13;3.30;;;12.50;99.90;;;;;;5004951;28;20068;-73
2023/10/30 09:52:39;;;;;;;18.83;3.28;;;12.60;99.90;;;;;;5008966;28;20046;-73
2023/10/30 09:55:09;;;;;;;12.38;2.92;;;12.60;99.90;;;;;;5012115;28;20545;-73
2023/10/30 09:57:35;;;;;;;13.68;3.33;;;12.60;99.90;;;;;;5007257;28;20045;-73
2023/10/30 10:00:05;;;;;;;15.68;3.40;;;12.60;99.90;;;;;;5005978;28;20058;-74
2023/10/30 10:02:32;;;;;;;13.82;2.78;;;12.60;99.90;;;;;;5005678;28;20014;-73
2023/10/30 10:04:57;;;;;;;15.75;3.10;;;12.70;99.90;;;;;;5012432;28;20407;-73
2023/10/30 10:07:25;;;;;;;15.38;3.40;;;12.70;99.90;;;;;;5006884;28;20037;-74
2023/10/30 10:10:01;;;;;;;18.55;3.40;;;12.70;99.90;;;;;;5004742;28;20455;-74
2023/10/30 10:12:28;;;;;;;16.02;3.05;;;12.70;99.90;;;;;;5011983;28;20517;-73
2023/10/30 10:14:54;;;;;;;16.73;3.88;;;12.80;99.90;;;;;;5012218;28;20061;-73
2023/10/30 10:17:19;;;;;;;14.90;3.22;;;12.80;99.90;;;;;;5008756;28;20038;-73
2023/10/30 10:19:46;;;;;;;19.77;3.50;;;12.90;99.90;;;;;;5009078;28;20435;-73
2023/10/30 10:22:25;;;;;;;17.55;3.58;;;12.90;99.90;;;;;;5006582;28;20026;-74
2023/10/30 10:24:52;;;;;;;20.33;3.22;;;12.90;99.90;;;;;;5006859;28;20049;-74
2023/10/30 10:27:19;;;;;;;12.82;3.10;;;13.00;99.90;;;;;;5003055;28;20026;-74
2023/10/30 10:29:51;;;;;;;15.75;3.58;;;13.00;99.90;;;;;;5011893;28;20037;-73
2023/10/30 10:32:16;;;;;;;22.92;3.58;;;13.00;99.90;;;;;;4999876;28;20018;-73
2023/10/30 10:34:42;;;;;;;19.48;3.45;;;13.10;99.90;;;;;;5011431;28;20033;-73
2023/10/30 10:37:17;;;;;;;22.65;3.33;;;13.10;99.90;;;;;;5008359;28;20072;-73
2023/10/30 10:39:53;;;;;;;18.20;2.85;;;13.20;99.90;;;;;;5011867;28;20080;-73
2023/10/30 10:42:24;;;;;;;17.88;3.38;;;13.20;99.90;;;;;;5011214;28;20129;-73
2023/10/30 10:44:54;;;;;;;14.27;3.13;;;13.20;99.90;;;;;;5011653;28;20033;-74
2023/10/30 10:47:21;;;;;;;19.40;3.15;;;13.20;99.90;;;;;;5011040;28;20060;-74
2023/10/30 10:49:47;;;;;;;15.15;3.00;;;13.20;99.90;;;;;;5010770;28;20057;-73
2023/10/30 10:52:15;;;;;;;15.25;3.08;;;13.20;99.90;;;;;;5010074;28;20084;-74
2023/10/30 10:54:52;;;;;;;19.92;3.47;;;13.20;99.90;;;;;;5002610;28;20019;-73
2023/10/30 10:57:20;;;;;;;16.92;3.17;;;13.20;99.90;;;;;;5009067;28;20026;-74
2023/10/30 10:59:47;;;;;;;15.52;2.72;;;13.20;99.90;;;;;;5002584;28;20026;-73
2023/10/30 11:02:21;;;;;;;18.52;2.90;;;13.20;99.90;;;;;;5009652;28;20037;-74
2023/10/30 11:04:51;;;;;;;18.52;2.83;;;13.20;99.90;;;;;;5007937;28;20030;-73
2023/10/30 11:07:40;;;;;;;13.68;3.00;;;13.20;99.90;;;;;;5003311;28;20054;-73
2023/10/30 11:10:13;;;;;;;12.60;2.60;;;13.30;99.90;;;;;;5015622;28;20471;-73
2023/10/30 11:12:53;;;;;;;13.68;2.80;;;13.30;99.90;;;;;;5011065;28;20040;-73
2023/10/30 11:15:45;;;;;;;21.45;2.88;;;13.30;99.90;;;;;;5002806;28;20036;-73
2023/10/30 11:18:22;;;;;;;14.68;3.10;;;13.40;99.90;;;;;;4997694;28;20076;-74
2023/10/30 11:21:06;;;;;;;13.32;3.28;;;13.30;99.90;;;;;;5003122;28;20025;-73
2023/10/30 11:23:58;;;;;;;12.68;2.92;;;13.40;99.90;;;;;;5001943;28;20467;-73
2023/10/30 11:26:30;;;;;;;14.40;3.35;;;13.40;99.90;;;;;;5007657;28;20021;-73
2023/10/30 11:28:57;;;;;;;18.17;3.88;;;13.40;99.90;;;;;;5010396;28;20471;-73
2023/10/30 11:31:24;;;;;;;12.95;2.85;;;13.40;99.90;;;;;;5009453;28;20030;-74
2023/10/30 11:33:50;;;;;;;20.27;3.40;;;13.50;99.90;;;;;;5009575;28;20025;-73
2023/10/30 11:36:21;;;;;;;16.85;3.42;;;13.50;99.90;;;;;;5011443;28;20022;-73
2023/10/30 11:38:59;;;;;;;14.60;3.20;;;13.60;99.90;;;;;;5005977;28;20054;-73
2023/10/30 11:41:27;;;;;;;22.23;4.22;;;13.60;99.90;;;;;;5004677;28;20398;-73
2023/10/30 11:44:08;;;;;;;17.10;3.78;;;13.60;99.90;;;;;;5005381;28;20415;-74
2023/10/30 11:46:41;;;;;;;13.77;3.15;;;13.60;99.90;;;;;;4997545;28;20395;-74
2023/10/30 11:49:09;;;;;;;12.68;2.22;;;13.70;99.90;;;;;;5010786;28;20014;-73
2023/10/30 11:51:41;;;;;;;11.13;2.75;;;13.70;99.90;;;;;;5010652;28;20085;-74
2023/10/30 11:54:07;;;;;;;16.08;2.60;;;13.80;99.90;;;;;;5009755;28;20122;-74
2023/10/30 11:56:33;;;;;;;14.88;2.67;;;13.80;99.90;;;;;;5003097;28;20558;-74
2023/10/30 11:58:59;;;;;;;14.52;3.00;;;13.80;99.90;;;;;;5009275;28;20049;-74
2023/10/30 12:01:25;;;;;;;17.08;3.10;;;13.80;99.90;;;;;;5003666;28;20014;-73
2023/10/30 12:03:51;;;;;;;18.25;2.80;;;13.80;99.90;;;;;;4997792;28;20018;-73
2023/10/30 12:06:16;;;;;;;14.70;3.10;;;13.80;99.90;;;;;;5000242;28;20034;-74
2023/10/30 12:08:42;;;;;;;14.82;2.92;;;13.90;99.90;;;;;;5010157;28;20430;-74
2023/10/30 12:11:09;;;;;;;17.20;3.08;;;13.90;99.90;;;;;;5009888;28;20061;-74
2023/10/30 12:13:35;;;;;;;13.48;2.80;;;13.90;99.90;;;;;;4996237;28;20045;-73
2023/10/30 12:16:00;;;;;;;15.38;3.20;;;13.90;99.90;;;;;;4993427;28;20105;-74
2023/10/30 12:18:26;;;;;;;13.48;3.15;;;13.90;99.90;;;;;;5008067;28;20030;-74
2023/10/30 12:20:52;;;;;;;14.05;2.60;;;13.90;99.90;;;;;;5000390;28;20037;-74
2023/10/30 12:23:18;;;;;;;12.95;2.38;;;13.90;99.90;;;;;;5009907;28;20021;-74
2023/10/30 12:25:44;;;;;;;13.57;2.70;;;13.90;99.90;;;;;;5009228;28;20384;-73
2023/10/30 12:28:10;;;;;;;15.68;3.05;;;14.00;99.90;;;;;;5006403;28;20030;-73
2023/10/30 12:30:38;;;;;;;13.02;2.42;;;14.00;99.90;;;;;;5008813;28;20410;-74
2023/10/30 12:33:03;;;;;;;17.70;2.85;;;14.00;99.90;;;;;;5004003;28;20128;-73
2023/10/30 12:35:29;;;;;;;16.50;3.10;;;14.00;99.90;;;;;;5011515;28;20456;-74